Weather History for Massena, NY

Change the Weather History Date:

Wednesday, December 10, 2014

  Actual Average Record
Temperature  
Mean Temperature 31 °F 24 °F  
Max Temperature 33 °F 33 °F 56 °F (1952)
Min Temperature 29 °F 17 °F -12 °F (1958)
Degree Days  
Heating Degree Days 34 40  
Month to date heating degree days 404 384  
Since 1 July heating degree days 1965 2153  
Cooling Degree Days 0 0  
Month to date cooling degree days 0 0  
Year to date cooling degree days 336 363  
Moisture  
Dew Point 28 °F    
Average Humidity 89    
Maximum Humidity 92    
Minimum Humidity 85    
Precipitation  
Precipitation 0.25 in 0.09 in 0.86 in (1953)
Month to date precipitation 0.40 0.87  
Year to date precipitation 30.56 33.40  
Sea Level Pressure  
Sea Level Pressure 29.86 in    
Wind  
Wind Speed 12 mph (NNW)    
Max Wind Speed 18 mph    
Max Gust Speed 26 mph    
Visibility 2 miles    
Events Fog , Snow    
T = Trace of Precipitation, MM = Missing Value Source: NWS Daily Summary

Daily Weather History Graph

Daily Weather History Graph

Search for Another Location

Airport:

Trip Planner

Search our weather history database for the weather conditions in past years. The results will help you decide how hot, cold, wet, or windy it might be!

Date:

Astronomy

Dec. 10, 2014 Rise Set
Actual Time 7:26 AM EST 4:17 PM EST
Civil Twilight 6:52 AM EST 4:51 PM EST
Nautical Twilight 6:15 AM EST 5:28 PM EST
Astronomical Twilight 5:40 AM EST 6:04 PM EST
Moon 8:37 PM EST (12/10) 10:08 AM EST (12/10)
Length of Visible Light 9h 58m
Length of Day
8h 51m
Waning Gibbous, 83% of the Moon is Illuminated
Dec 10
Waning Gibbous
Dec 14
Last Quarter
Dec 21
New
Dec 28
First Quarter
Jan 4
Full

Hourly Weather History & Observations

Time (EST) Temp. Windchill Dew Point Humidity Pressure Visibility Wind Dir Wind Speed Gust Speed Precip Events Conditions
12:53 AM 33.1 °F 24.9 °F 30.0 °F 89% 30.03 in 1.5 mi North 10.4 mph - 0.02 in Snow Light Snow
1:03 AM 32.0 °F 24.2 °F 30.0 °F 92% 30.01 in 1.2 mi North 9.2 mph - 0.00 in Snow Light Snow
1:30 AM 32.0 °F 24.2 °F 30.0 °F 92% 30.00 in 1.5 mi North 9.2 mph - 0.02 in Snow Light Snow
1:53 AM 32.0 °F 23.6 °F 30.0 °F 92% 30.02 in 1.8 mi North 10.4 mph - 0.02 in Snow Light Snow
2:01 AM 32.0 °F 22.5 °F 28.9 °F 88% 30.00 in 2.5 mi North 12.7 mph - 0.00 in Snow Light Snow
2:16 AM 32.0 °F 23.0 °F 28.9 °F 88% 30.00 in 1.5 mi North 11.5 mph - 0.01 in Snow Light Snow
2:32 AM 32.0 °F 24.2 °F 28.9 °F 88% 29.99 in 1.2 mi North 9.2 mph - 0.01 in Snow Light Snow
2:44 AM 32.0 °F 24.2 °F 28.9 °F 88% 29.99 in 1.8 mi North 9.2 mph - 0.02 in Snow Light Snow
2:51 AM 32.0 °F 23.6 °F 28.4 °F 87% 29.99 in 2.0 mi North 10.4 mph - 0.02 in Snow Light Snow
2:53 AM 32.0 °F 24.8 °F 28.9 °F 88% 30.01 in 2.0 mi North 8.1 mph - 0.02 in Snow Light Snow
3:02 AM 32.0 °F 23.6 °F 28.9 °F 88% 29.99 in 1.5 mi North 10.4 mph - 0.00 in Snow Light Snow
3:23 AM 30.9 °F 22.8 °F 28.9 °F 92% 29.98 in 1.2 mi North 9.2 mph - 0.00 in Snow Light Snow
3:40 AM 30.9 °F 22.2 °F 28.9 °F 92% 29.97 in 1.5 mi North 10.4 mph 19.6 mph 0.01 in Snow Light Snow
3:46 AM 30.9 °F 21.7 °F 28.9 °F 92% 29.97 in 1.2 mi NNW 11.5 mph - 0.01 in Snow Light Snow
3:53 AM 30.9 °F 22.2 °F 28.9 °F 92% 29.98 in 1.2 mi North 10.4 mph - 0.01 in Snow Light Snow
4:14 AM 30.9 °F 22.2 °F 28.0 °F 89% 29.96 in 1.0 mi NNW 10.4 mph - 0.01 in Snow Light Snow
4:53 AM 30.9 °F 20.7 °F 28.0 °F 89% 29.98 in 1.5 mi NNW 13.8 mph 18.4 mph 0.02 in Snow Light Snow
5:15 AM 30.9 °F 22.2 °F 28.0 °F 89% 29.96 in 1.2 mi NNW 10.4 mph - 0.00 in Snow Light Snow
5:21 AM 30.9 °F 21.2 °F 28.0 °F 89% 29.96 in 1.5 mi NNW 12.7 mph - 0.00 in Snow Light Snow
5:25 AM 30.9 °F 20.7 °F 28.0 °F 89% 29.95 in 1.2 mi North 13.8 mph - 0.00 in Snow Light Snow
5:42 AM 30.0 °F 18.7 °F 28.0 °F 92% 29.94 in 1.0 mi NNW 16.1 mph 23.0 mph 0.01 in Snow Light Snow
5:53 AM 30.0 °F 19.1 °F 28.0 °F 92% 29.95 in 1.0 mi NNW 15.0 mph 23.0 mph 0.01 in Snow Light Snow
6:11 AM 30.0 °F 19.5 °F 27.0 °F 88% 29.94 in 1.2 mi NNW 13.8 mph 25.3 mph 0.00 in Snow Light Snow
6:51 AM 30.2 °F 19.8 °F 26.6 °F 86% 29.95 in 2.0 mi NNW 13.8 mph 20.7 mph 0.00 in Snow Light Snow
6:53 AM 30.0 °F 20.5 °F 27.0 °F 88% 29.97 in 2.5 mi North 11.5 mph 20.7 mph 0.00 in Snow Light Snow
6:56 AM 30.0 °F 19.1 °F 27.0 °F 88% 29.95 in 3.0 mi North 15.0 mph 20.7 mph 0.00 in Snow Light Snow
7:09 AM 30.0 °F 20.5 °F 27.0 °F 88% 29.95 in 2.5 mi NNW 11.5 mph 20.7 mph 0.00 in Snow Light Snow
7:17 AM 30.0 °F 19.1 °F 27.0 °F 88% 29.95 in 1.5 mi North 15.0 mph 21.9 mph 0.00 in Snow Light Snow
7:40 AM 30.0 °F 20.0 °F 27.0 °F 88% 29.95 in 1.5 mi North 12.7 mph 20.7 mph 0.00 in Snow Light Snow
7:53 AM 28.9 °F 18.2 °F 26.1 °F 89% 29.96 in 1.5 mi North 13.8 mph 23.0 mph 0.00 in Snow Light Snow
8:04 AM 28.9 °F 19.2 °F 26.1 °F 89% 29.93 in 1.5 mi NNW 11.5 mph 23.0 mph 0.00 in Snow Light Snow
8:11 AM 28.9 °F 19.2 °F 26.1 °F 89% 29.93 in 1.2 mi NNW 11.5 mph 23.0 mph 0.00 in Snow Light Snow
8:24 AM 28.9 °F 18.2 °F 26.1 °F 89% 29.92 in 0.8 mi NNW 13.8 mph 20.7 mph 0.00 in Snow Light Snow
8:53 AM 28.9 °F 17.7 °F 26.1 °F 89% 29.96 in 1.0 mi NNW 15.0 mph 21.9 mph 0.00 in Snow Light Snow
8:57 AM 28.9 °F 18.2 °F 26.1 °F 89% 29.93 in 1.0 mi North 13.8 mph 21.9 mph 0.00 in Snow Light Snow
9:04 AM 28.9 °F 18.2 °F 26.1 °F 89% 29.92 in 0.8 mi North 13.8 mph 21.9 mph 0.00 in Snow Light Snow
9:53 AM 30.0 °F 20.0 °F 27.0 °F 88% 29.94 in 0.8 mi North 12.7 mph 20.7 mph 0.00 in Snow Light Snow
9:59 AM 30.0 °F 19.5 °F 27.0 °F 88% 29.92 in 1.0 mi North 13.8 mph 20.7 mph 0.00 in Snow Light Snow
10:19 AM 30.0 °F 18.7 °F 27.0 °F 88% 29.91 in 0.8 mi North 16.1 mph - 0.00 in Snow Light Snow
10:33 AM 30.0 °F 19.5 °F 27.0 °F 88% 29.90 in 0.8 mi North 13.8 mph 20.7 mph 0.00 in Snow Light Snow
10:41 AM 30.0 °F 19.1 °F 27.0 °F 88% 29.90 in 1.0 mi North 15.0 mph 20.7 mph 0.00 in Snow Light Snow
10:53 AM 30.0 °F 20.0 °F 27.0 °F 88% 29.93 in 1.2 mi North 12.7 mph - 0.00 in Snow Light Snow
11:01 AM 30.0 °F 19.5 °F 27.0 °F 88% 29.90 in 1.5 mi North 13.8 mph - 0.00 in Snow Light Snow
11:15 AM 30.0 °F 20.5 °F 27.0 °F 88% 29.90 in 1.8 mi NNW 11.5 mph - 0.00 in Snow Light Snow
11:29 AM 30.0 °F 20.0 °F 27.0 °F 88% 29.88 in 1.0 mi North 12.7 mph - 0.01 in Snow Light Snow
11:36 AM 30.0 °F 20.0 °F 28.0 °F 92% 29.87 in 1.2 mi North 12.7 mph - 0.01 in Snow Light Snow
11:45 AM 30.0 °F 18.3 °F 27.0 °F 88% 29.86 in 1.8 mi North 17.3 mph 20.7 mph 0.01 in Snow Light Snow
11:51 AM 30.2 °F 20.2 °F 26.6 °F 86% 29.86 in 1.8 mi North 12.7 mph - 0.01 in Snow Light Snow
11:53 AM 30.0 °F 21.1 °F 27.0 °F 88% 29.88 in 1.8 mi North 10.4 mph - 0.01 in Snow Light Snow
12:23 PM 30.9 °F 21.2 °F 28.0 °F 89% 29.86 in 1.2 mi North 12.7 mph - 0.00 in Snow Light Snow
12:30 PM 30.9 °F 22.2 °F 28.0 °F 89% 29.85 in 1.2 mi North 10.4 mph - 0.00 in Snow Light Snow
12:48 PM 30.2 °F 20.8 °F 28.4 °F 93% 29.84 in 1.5 mi North 11.5 mph - 0.00 in Snow Light Snow
1:00 PM 30.9 °F 21.7 °F 28.0 °F 89% 29.83 in 1.8 mi NNW 11.5 mph - 0.00 in Snow Light Snow
1:18 PM 30.9 °F 23.5 °F 28.9 °F 92% 29.84 in 2.0 mi NNW 8.1 mph - 0.00 in Snow Light Snow
1:41 PM 32.0 °F 25.6 °F 28.9 °F 88% 29.83 in 1.8 mi North 6.9 mph - 0.00 in Snow Light Snow
1:53 PM 32.0 °F 23.0 °F 28.9 °F 88% 29.83 in 1.8 mi North 11.5 mph - 0.00 in Snow Light Snow
2:14 PM 30.9 °F 21.2 °F 28.9 °F 92% 29.80 in 0.8 mi North 12.7 mph 18.4 mph 0.00 in Snow Light Snow
2:53 PM 30.9 °F 22.2 °F 28.9 °F 92% 29.81 in 0.2 mi North 10.4 mph - 0.02 in Fog , Snow Snow
3:53 PM 30.9 °F 21.7 °F 28.9 °F 92% 29.80 in 0.5 mi North 11.5 mph - 0.03 in Fog , Snow Snow
4:24 PM 30.9 °F 22.8 °F 28.9 °F 92% 29.77 in 1.0 mi North 9.2 mph - 0.01 in Snow Light Snow
4:46 PM 30.9 °F 22.2 °F 28.0 °F 89% 29.76 in 1.5 mi North 10.4 mph - 0.02 in Snow Light Snow
4:53 PM 30.9 °F 20.7 °F 28.0 °F 89% 29.78 in 1.2 mi North 13.8 mph - 0.02 in Snow Light Snow
5:31 PM 30.9 °F 21.7 °F 28.0 °F 89% 29.76 in 0.8 mi North 11.5 mph 19.6 mph 0.02 in Snow Light Snow
5:53 PM 30.0 °F 20.5 °F 28.0 °F 92% 29.76 in 0.8 mi North 11.5 mph - 0.03 in Snow Light Snow
6:19 PM 30.0 °F 20.0 °F 28.0 °F 92% 29.73 in 1.0 mi North 12.7 mph 20.7 mph 0.01 in   Mist
6:36 PM 30.0 °F 20.5 °F 28.0 °F 92% 29.72 in 0.8 mi North 11.5 mph - 0.02 in   Mist
6:53 PM 30.0 °F 19.5 °F 28.0 °F 92% 29.73 in 0.8 mi North 13.8 mph - 0.02 in   Mist
7:24 PM 30.0 °F 21.7 °F 27.0 °F 88% 29.70 in 1.0 mi NNW 9.2 mph - 0.01 in   Mist
7:33 PM 30.0 °F 19.5 °F 27.0 °F 88% 29.70 in 1.2 mi North 13.8 mph 19.6 mph 0.01 in   Overcast
7:53 PM 30.0 °F 20.0 °F 27.0 °F 88% 29.71 in 0.8 mi North 12.7 mph - 0.01 in   Mist
8:28 PM 30.0 °F 21.7 °F 27.0 °F 88% 29.68 in 1.5 mi North 9.2 mph - N/A   Overcast
8:32 PM 30.0 °F 21.1 °F 27.0 °F 88% 29.68 in 3.0 mi NNW 10.4 mph - N/A   Overcast
8:53 PM 30.0 °F 22.4 °F 27.0 °F 88% 29.68 in 1.8 mi NNW 8.1 mph - N/A   Overcast
8:59 PM 30.0 °F 20.5 °F 27.0 °F 88% 29.66 in 1.2 mi North 11.5 mph 19.6 mph N/A   Overcast
9:13 PM 30.0 °F 21.7 °F 27.0 °F 88% 29.66 in 2.0 mi North 9.2 mph - N/A   Overcast
9:17 PM 30.0 °F 21.7 °F 27.0 °F 88% 29.66 in 3.0 mi NNW 9.2 mph - N/A   Overcast
9:53 PM 30.0 °F 20.5 °F 26.1 °F 85% 29.66 in 3.0 mi NNW 11.5 mph - 0.00 in Snow Light Snow
10:45 PM 30.0 °F 20.5 °F 26.1 °F 85% 29.64 in 7.0 mi NNW 11.5 mph - 0.00 in Snow Light Snow
10:53 PM 28.9 °F 20.4 °F 26.1 °F 89% 29.66 in 5.0 mi North 9.2 mph - 0.00 in Snow Light Snow
11:03 PM 28.9 °F 20.4 °F 26.1 °F 89% 29.64 in 1.8 mi NNW 9.2 mph - 0.00 in Snow Light Snow
11:10 PM 28.9 °F 20.4 °F 26.1 °F 89% 29.64 in 1.5 mi NW 9.2 mph - 0.00 in Snow Light Snow
11:35 PM 28.9 °F 20.4 °F 26.1 °F 89% 29.63 in 2.0 mi NNW 9.2 mph - 0.00 in Snow Light Snow
11:42 PM 28.9 °F 20.4 °F 26.1 °F 89% 29.63 in 1.8 mi NNW 9.2 mph - 0.01 in Snow Light Snow
11:53 PM 28.9 °F 20.4 °F 26.1 °F 89% 29.64 in 2.0 mi North 9.2 mph - 0.01 in Snow Light Snow